Airfield :
LOGIN :

Register | Disclaimer

   EN    FR    IT 

 










Legend :    VFR   Marginal VFR   IFR   Intensive IFR   Very Intensive IFR
Visi :
Ceiling :
>= 8 km
>= 3000ft
5 to 8 km
1000 to 3000 ft
1500m to 5 km
500 to 1000 ft
800 to 1500m
200 to 500 ft
< 800m
< 200 ft
Symbols :   Thunderstorms  Fog  Heavy snow  Heavy precipitations  Wind > 20 kt
SIGMETs :     Misc.  Thunderstorms  Icing  Turbulence  Mountain Waves  Volcanic Ashes







- Airport Elevation : 699 ft
- IATA code : PAD


EDLP - Paderborn Lippstadt

CURRENT METAR :
  • 301420Z 23008KT CAVOK 20/07 Q1023

EXPIRED METARs :
  • 301350Z 24006KT 200V300 CAVOK 20/07 Q1024
  • 301320Z 25007KT 200V320 CAVOK 20/06 Q1024
  • 301250Z 26005KT 190V350 CAVOK 20/07 Q1024
  • 301220Z 23007KT 210V300 9999 SCT048 19/07 Q1024
  • 301150Z 24007KT 210V300 9999 SCT043 19/07 Q1025
  • 301120Z 23010KT 200V270 CAVOK 19/07 Q1025

TAF TAF EDLP
Valid from the 30 at 12:00 until the 31 at 12:00 UTC


301100Z 3012/3112 23010KT CAVOK
BECMG 3017/3020 17008KT
No reported NOTAMs for that airfield.



MET'MAP, your aeronautical weather chart ! - Copyright ORBIFLY December 2007 - Disclaimer

ORBIFLY MET'MAP TEAM :

Programming & Development : Alexandra Zaïnal
Concept & Development : Baudouin d'Aumeries
Co-Development & Prog : Marc-Olivier Méhu
Technical & hardware support : Manuel Goepfert

Contact : metmap@orbifly.com




SOURCES & CREDITS :

   NOAA